createdAt,value
2022-12-11T00:02:54.377Z,98439.72
2022-12-11T00:12:59.319Z,98425.19
2022-12-11T00:23:02.560Z,98403.91
2022-12-11T00:33:06.956Z,98379.47
2022-12-11T00:43:10.133Z,98382.22
2022-12-11T00:53:14.611Z,98396.88
2022-12-11T01:03:18.479Z,98391.97
2022-12-11T01:13:23.022Z,98385.50
2022-12-11T01:23:26.324Z,98386.16
2022-12-11T01:33:31.439Z,98385.63
2022-12-11T01:43:34.515Z,98393.16
2022-12-11T01:53:40.616Z,98403.69
2022-12-11T02:03:44.828Z,98398.34
2022-12-11T02:13:55.116Z,98402.63
2022-12-11T02:24:09.207Z,98412.31
2022-12-11T02:34:18.297Z,98410.75
2022-12-11T02:44:25.508Z,98415.47
2022-12-11T02:54:33.555Z,98408.63
2022-12-11T03:04:37.809Z,98398.00
2022-12-11T03:14:42.952Z,98394.19
2022-12-11T03:24:48.835Z,98393.47
2022-12-11T03:34:58.460Z,98385.25
2022-12-11T03:45:02.348Z,98382.34
2022-12-11T03:55:08.726Z,98371.91
2022-12-11T04:05:12.863Z,98384.38
2022-12-11T04:15:17.526Z,98385.53
2022-12-11T04:25:20.860Z,98388.69
2022-12-11T04:35:25.391Z,98394.91
2022-12-11T04:45:28.462Z,98403.88
2022-12-11T04:55:33.065Z,98423.75
2022-12-11T05:05:36.163Z,98430.69
2022-12-11T05:15:41.499Z,98447.66
2022-12-11T05:25:46.098Z,98464.88
2022-12-11T05:35:50.582Z,98475.22
2022-12-11T05:45:53.788Z,98471.19
2022-12-11T05:56:02.518Z,98472.28
2022-12-11T06:06:06.354Z,98486.94
2022-12-11T06:16:11.219Z,98486.25
2022-12-11T06:26:15.154Z,98498.13
2022-12-11T06:36:21.728Z,98535.47
2022-12-11T06:46:24.969Z,98558.84
2022-12-11T06:56:29.550Z,98568.44
2022-12-11T07:06:32.629Z,98597.09
2022-12-11T07:16:37.404Z,98614.22
2022-12-11T07:26:40.710Z,98635.91
2022-12-11T07:36:45.279Z,98638.25
2022-12-11T07:46:48.425Z,98657.31
2022-12-11T07:56:54.063Z,98672.63
2022-12-11T08:06:57.342Z,98663.69
2022-12-11T08:17:02.517Z,98691.66
2022-12-11T08:27:06.651Z,98699.81
2022-12-11T08:37:12.228Z,98722.00
2022-12-11T08:47:17.096Z,98745.88
2022-12-11T08:57:22.283Z,98753.84
2022-12-11T09:07:26.437Z,98787.22
2022-12-11T09:17:30.929Z,98798.59
2022-12-11T09:27:35.458Z,98791.84
2022-12-11T09:37:41.299Z,98793.44
2022-12-11T09:47:46.202Z,98785.00
2022-12-11T09:57:56.965Z,98785.12
2022-12-11T10:08:06.186Z,98774.03
2022-12-11T10:18:14.925Z,98757.16
2022-12-11T10:28:19.909Z,98746.88
2022-12-11T10:38:28.204Z,98752.25
2022-12-11T10:48:31.335Z,98775.84
2022-12-11T10:58:50.359Z,98791.38
2022-12-11T11:08:55.676Z,98792.97
2022-12-11T11:19:00.338Z,98804.31
2022-12-11T11:29:03.897Z,98809.34
2022-12-11T11:39:24.647Z,98804.84
2022-12-11T11:49:38.120Z,98803.87
2022-12-11T11:59:45.207Z,98829.94
2022-12-11T12:09:54.656Z,98845.38
2022-12-11T12:20:05.474Z,98867.78
2022-12-11T12:30:15.075Z,98882.28
2022-12-11T12:40:30.308Z,98880.63
2022-12-11T12:50:38.767Z,98884.19
2022-12-11T13:00:44.460Z,98869.31
2022-12-11T13:10:47.628Z,98871.94
2022-12-11T13:20:53.296Z,98912.72
2022-12-11T13:31:08.818Z,98928.22
2022-12-11T13:41:13.728Z,98945.41
2022-12-11T13:51:19.086Z,98942.75
2022-12-11T14:01:27.413Z,98966.69
2022-12-11T14:11:36.389Z,98965.06
2022-12-11T14:21:40.859Z,98989.25
2022-12-11T14:31:45.427Z,98993.88
2022-12-11T14:41:53.317Z,99013.62
2022-12-11T14:51:57.129Z,99027.66
2022-12-11T15:02:04.092Z,99035.47
2022-12-11T15:12:11.707Z,99037.25
2022-12-11T15:22:17.191Z,99040.78
2022-12-11T15:32:21.776Z,99059.78
2022-12-11T15:42:28.863Z,99063.16
2022-12-11T15:52:35.207Z,99072.69
2022-12-11T16:02:39.642Z,99070.16
2022-12-11T16:12:43.453Z,99081.38
2022-12-11T16:22:47.891Z,99091.72
2022-12-11T16:32:51.291Z,99108.09
2022-12-11T16:42:55.884Z,99116.69
2022-12-11T16:52:59.395Z,99127.94
2022-12-11T17:03:03.967Z,99133.94
2022-12-11T17:13:07.323Z,99137.38
2022-12-11T17:23:13.527Z,99140.84
2022-12-11T17:33:17.858Z,99142.38
2022-12-11T17:43:22.415Z,99146.03
2022-12-11T17:53:26.389Z,99151.22
2022-12-11T18:03:31.031Z,99166.62
2022-12-11T18:13:34.482Z,99165.88
2022-12-11T18:23:39.192Z,99175.34
2022-12-11T18:33:44.342Z,99180.31
2022-12-11T18:43:49.558Z,99185.53
2022-12-11T18:53:53.953Z,99188.84
2022-12-11T19:04:04.153Z,99193.25
2022-12-11T19:14:09.558Z,99214.88
2022-12-11T19:24:16.253Z,99221.56
2022-12-11T19:34:19.733Z,99225.88
2022-12-11T19:44:24.621Z,99222.44
2022-12-11T19:54:27.970Z,99214.75
2022-12-11T20:04:35.251Z,99222.34
2022-12-11T20:14:39.224Z,99224.31
2022-12-11T20:24:44.167Z,99227.66
2022-12-11T20:34:47.475Z,99239.03
2022-12-11T20:44:52.365Z,99259.69
2022-12-11T20:54:55.611Z,99252.81
2022-12-11T21:05:00.443Z,99244.06
2022-12-11T21:15:03.942Z,99252.56
2022-12-11T21:25:09.783Z,99257.72
2022-12-11T21:35:14.776Z,99260.03
2022-12-11T21:45:59.220Z,99276.78
2022-12-11T21:55:42.859Z,99290.47
2022-12-11T22:05:47.525Z,99303.44
2022-12-11T22:15:52.179Z,99311.03
2022-12-11T22:25:56.917Z,99323.09
2022-12-11T22:36:01.302Z,99318.78
2022-12-11T22:46:05.885Z,99327.28
2022-12-11T22:56:11.047Z,99334.38
2022-12-11T23:06:18.364Z,99333.66
2022-12-11T23:16:21.949Z,99335.25
2022-12-11T23:26:28.322Z,99346.84
2022-12-11T23:36:31.572Z,99371.56
2022-12-11T23:46:36.089Z,99374.66
2022-12-11T23:56:40.021Z,99364.75
